createdAt,value
2023-05-01T00:01:32.109Z,1.75
2023-05-01T00:03:59.029Z,1.65
2023-05-01T00:06:26.199Z,1.63
2023-05-01T00:08:52.812Z,1.75
2023-05-01T00:11:19.516Z,1.95
2023-05-01T00:13:46.438Z,1.90
2023-05-01T00:16:13.793Z,2.08
2023-05-01T00:18:40.390Z,2.20
2023-05-01T00:21:06.992Z,2.00
2023-05-01T00:23:33.748Z,2.33
2023-05-01T00:26:00.393Z,1.85
2023-05-01T00:28:27.071Z,2.08
2023-05-01T00:30:53.691Z,1.60
2023-05-01T00:33:20.881Z,2.25
2023-05-01T00:35:47.731Z,1.83
2023-05-01T00:38:14.436Z,1.77
2023-05-01T00:40:45.077Z,1.90
2023-05-01T00:43:12.853Z,1.80
2023-05-01T00:45:43.192Z,1.70
2023-05-01T00:48:10.197Z,2.00
2023-05-01T00:50:37.229Z,1.90
2023-05-01T00:53:04.234Z,1.73
2023-05-01T00:55:31.674Z,2.05
2023-05-01T00:57:59.061Z,1.70
2023-05-01T01:00:25.642Z,1.88
2023-05-01T01:02:52.336Z,1.70
2023-05-01T01:05:24.021Z,1.50
2023-05-01T01:07:58.096Z,1.55
2023-05-01T01:10:31.184Z,1.90
2023-05-01T01:13:16.922Z,1.77
2023-05-01T01:16:08.597Z,1.85
2023-05-01T01:18:52.949Z,2.00
2023-05-01T01:21:28.246Z,1.88
2023-05-01T01:24:24.005Z,2.00
2023-05-01T01:27:08.642Z,3.00
2023-05-01T01:29:54.395Z,1.75
2023-05-01T01:33:01.562Z,1.80
2023-05-01T01:35:30.259Z,2.33
2023-05-01T01:37:56.963Z,2.10
2023-05-01T01:40:29.614Z,1.83
2023-05-01T01:43:02.572Z,1.85
2023-05-01T01:45:37.200Z,1.95
2023-05-01T01:48:07.800Z,1.85
2023-05-01T01:50:38.527Z,1.70
2023-05-01T01:53:08.706Z,2.28
2023-05-01T01:55:37.788Z,1.90
2023-05-01T01:58:06.602Z,1.80
2023-05-01T02:00:35.629Z,1.83
2023-05-01T02:03:03.684Z,1.80
2023-05-01T02:05:32.957Z,1.85
2023-05-01T02:08:00.435Z,1.75
2023-05-01T02:10:28.742Z,1.83
2023-05-01T02:12:58.112Z,2.60
2023-05-01T02:15:26.957Z,2.13
2023-05-01T02:17:54.705Z,1.55
2023-05-01T02:20:21.925Z,2.00
2023-05-01T02:22:49.963Z,1.60
2023-05-01T02:25:16.819Z,1.90
2023-05-01T02:28:00.127Z,1.80
2023-05-01T02:30:26.780Z,2.95
2023-05-01T02:32:53.553Z,2.10
2023-05-01T02:35:20.283Z,2.10
2023-05-01T02:37:47.061Z,1.95
2023-05-01T02:40:15.028Z,2.10
2023-05-01T02:42:44.664Z,1.90
2023-05-01T02:45:19.115Z,1.77
2023-05-01T02:47:50.802Z,1.90
2023-05-01T02:50:18.268Z,1.83
2023-05-01T02:52:46.255Z,1.95
2023-05-01T02:55:13.063Z,1.83
2023-05-01T02:57:39.650Z,2.00
2023-05-01T03:00:09.302Z,1.90
2023-05-01T03:02:35.967Z,2.13
2023-05-01T03:05:02.662Z,1.85
2023-05-01T03:07:34.956Z,1.90
2023-05-01T03:10:03.920Z,1.55
2023-05-01T03:12:31.101Z,2.10
2023-05-01T03:14:57.793Z,1.77
2023-05-01T03:17:24.432Z,1.88
2023-05-01T03:19:51.528Z,2.03
2023-05-01T03:22:18.391Z,2.55
2023-05-01T03:24:45.096Z,1.90
2023-05-01T03:27:12.038Z,1.70
2023-05-01T03:29:38.648Z,2.40
2023-05-01T03:32:05.876Z,1.90
2023-05-01T03:34:32.745Z,1.92
2023-05-01T03:36:59.390Z,1.75
2023-05-01T03:39:26.014Z,2.50
2023-05-01T03:41:52.606Z,2.53
2023-05-01T03:44:19.213Z,1.85
2023-05-01T03:46:45.968Z,2.10
2023-05-01T03:49:12.886Z,1.90
2023-05-01T03:51:39.450Z,1.75
2023-05-01T03:54:06.300Z,2.03
2023-05-01T03:56:35.651Z,1.75
2023-05-01T03:59:02.547Z,2.13
2023-05-01T04:01:29.217Z,2.00
2023-05-01T04:03:55.946Z,2.05
2023-05-01T04:06:22.934Z,1.75
2023-05-01T04:08:49.630Z,2.17
2023-05-01T04:11:16.324Z,1.83
2023-05-01T04:13:42.920Z,2.05
2023-05-01T04:16:09.602Z,1.73
2023-05-01T04:18:36.204Z,1.90
2023-05-01T04:21:02.956Z,1.88
2023-05-01T04:23:29.561Z,2.55
2023-05-01T04:25:56.325Z,1.70
2023-05-01T04:28:23.263Z,2.13
2023-05-01T04:30:50.233Z,1.77
2023-05-01T04:33:16.872Z,1.98
2023-05-01T04:35:43.667Z,2.00
2023-05-01T04:38:10.746Z,1.83
2023-05-01T04:40:37.481Z,1.90
2023-05-01T04:43:04.062Z,2.50
2023-05-01T04:45:30.655Z,1.85
2023-05-01T04:47:57.345Z,1.70
2023-05-01T04:50:24.049Z,1.75
2023-05-01T04:52:50.771Z,2.00
2023-05-01T04:55:18.169Z,2.10
2023-05-01T04:57:44.779Z,2.00
2023-05-01T05:00:12.005Z,2.03
2023-05-01T05:02:38.920Z,2.10
2023-05-01T05:05:06.136Z,1.83
2023-05-01T05:07:32.733Z,2.00
2023-05-01T05:09:59.508Z,3.40
2023-05-01T05:12:26.156Z,2.08
2023-05-01T05:14:52.733Z,1.85
2023-05-01T05:17:19.324Z,2.53
2023-05-01T05:19:45.967Z,2.17
2023-05-01T05:22:12.781Z,2.22
2023-05-01T05:24:39.419Z,2.10
2023-05-01T05:27:07.062Z,1.73
2023-05-01T05:29:34.900Z,2.20
2023-05-01T05:32:01.970Z,2.20
2023-05-01T05:34:28.641Z,2.13
2023-05-01T05:36:55.325Z,1.70
2023-05-01T05:39:23.627Z,2.00
2023-05-01T05:41:52.362Z,2.20
2023-05-01T05:44:19.023Z,1.90
2023-05-01T05:46:45.826Z,2.85
2023-05-01T05:49:12.603Z,3.33
2023-05-01T05:51:39.259Z,1.90
2023-05-01T05:54:05.885Z,2.00
2023-05-01T05:56:32.559Z,2.03
2023-05-01T05:59:02.887Z,1.98
2023-05-01T06:01:29.657Z,1.90
2023-05-01T06:03:56.746Z,2.55
2023-05-01T06:06:23.720Z,2.00
2023-05-01T06:08:50.412Z,1.80
2023-05-01T06:11:17.618Z,1.90
2023-05-01T06:13:44.249Z,2.35
2023-05-01T06:16:11.088Z,1.60
2023-05-01T06:18:37.907Z,1.85
2023-05-01T06:21:04.756Z,1.95
2023-05-01T06:23:31.852Z,1.83
2023-05-01T06:25:58.831Z,1.90
2023-05-01T06:28:25.616Z,1.88
2023-05-01T06:30:52.477Z,1.80
2023-05-01T06:33:19.865Z,1.60
2023-05-01T06:35:46.736Z,1.83
2023-05-01T06:38:13.323Z,1.98
2023-05-01T06:40:40.382Z,1.80
2023-05-01T06:43:07.021Z,1.73
2023-05-01T06:45:33.797Z,1.98
2023-05-01T06:48:00.526Z,2.42
2023-05-01T06:50:28.772Z,3.17
2023-05-01T06:52:55.375Z,3.60
2023-05-01T06:55:22.256Z,4.72
2023-05-01T06:57:48.823Z,4.05
2023-05-01T07:00:17.406Z,3.03
2023-05-01T07:02:46.019Z,2.08
2023-05-01T07:05:13.072Z,2.05
2023-05-01T07:07:44.601Z,2.35
2023-05-01T07:10:17.089Z,2.40
2023-05-01T07:12:43.838Z,2.78
2023-05-01T07:15:10.658Z,2.35
2023-05-01T07:17:37.270Z,2.38
2023-05-01T07:20:05.124Z,2.55
2023-05-01T07:22:31.845Z,2.30
2023-05-01T07:24:58.525Z,2.20
2023-05-01T07:27:25.202Z,2.33
2023-05-01T07:29:51.818Z,2.03
2023-05-01T07:32:18.506Z,2.08
2023-05-01T07:34:45.390Z,1.90
2023-05-01T07:37:12.133Z,2.10
2023-05-01T07:39:38.854Z,2.58
2023-05-01T07:42:05.523Z,1.98
2023-05-01T07:44:32.181Z,2.10
2023-05-01T07:47:06.183Z,2.08
2023-05-01T07:49:39.700Z,2.05
2023-05-01T07:52:09.356Z,2.28
2023-05-01T07:54:36.014Z,2.20
2023-05-01T07:57:03.615Z,2.15
2023-05-01T07:59:30.269Z,2.00
2023-05-01T08:01:57.131Z,1.80
2023-05-01T08:04:24.067Z,2.22
2023-05-01T08:06:51.720Z,2.00
2023-05-01T08:09:18.478Z,2.72
2023-05-01T08:11:45.123Z,2.40
2023-05-01T08:14:11.752Z,2.30
2023-05-01T08:16:38.694Z,2.20
2023-05-01T08:19:05.527Z,1.95
2023-05-01T08:21:32.272Z,2.35
2023-05-01T08:23:58.868Z,2.28
2023-05-01T08:26:25.604Z,2.10
2023-05-01T08:28:52.298Z,2.33
2023-05-01T08:31:19.465Z,2.03
2023-05-01T08:33:46.130Z,2.08
2023-05-01T08:36:12.904Z,2.40
2023-05-01T08:38:39.549Z,2.17
2023-05-01T08:41:06.403Z,2.08
2023-05-01T08:43:33.484Z,2.15
2023-05-01T08:46:01.246Z,2.30
2023-05-01T08:48:29.561Z,2.15
2023-05-01T08:51:00.039Z,2.08
2023-05-01T08:53:31.713Z,2.13
2023-05-01T08:56:00.150Z,1.98
2023-05-01T08:58:28.634Z,2.10
2023-05-01T09:00:58.163Z,2.08
2023-05-01T09:03:26.502Z,2.33
2023-05-01T09:05:53.743Z,2.92
2023-05-01T09:08:20.685Z,2.33
2023-05-01T09:10:49.222Z,1.85
2023-05-01T09:13:16.034Z,1.92
2023-05-01T09:15:42.725Z,2.17
2023-05-01T09:18:09.566Z,2.30
2023-05-01T09:20:37.732Z,2.05
2023-05-01T09:23:04.836Z,1.95
2023-05-01T09:25:31.465Z,2.03
2023-05-01T09:27:58.073Z,1.88
2023-05-01T09:30:36.342Z,1.90
2023-05-01T09:33:11.681Z,2.00
2023-05-01T09:35:55.437Z,1.70
2023-05-01T09:38:24.687Z,1.90
2023-05-01T09:40:53.065Z,1.90
2023-05-01T09:43:27.579Z,1.77
2023-05-01T09:46:01.393Z,2.38
2023-05-01T09:48:28.270Z,1.67
2023-05-01T09:50:54.887Z,1.50
2023-05-01T09:53:40.462Z,1.65
2023-05-01T09:56:07.518Z,1.80
2023-05-01T09:58:34.181Z,1.92
2023-05-01T10:01:00.860Z,2.00
2023-05-01T10:03:28.062Z,1.90
2023-05-01T10:05:57.558Z,1.83
2023-05-01T10:08:24.336Z,2.03
2023-05-01T10:11:04.476Z,2.28
2023-05-01T10:13:32.058Z,1.67
2023-05-01T10:16:01.283Z,2.08
2023-05-01T10:18:29.045Z,1.92
2023-05-01T10:20:56.290Z,1.75
2023-05-01T10:23:23.623Z,1.77
2023-05-01T10:25:53.645Z,2.00
2023-05-01T10:28:25.096Z,1.85
2023-05-01T10:30:52.742Z,2.05
2023-05-01T10:33:19.488Z,2.00
2023-05-01T10:35:54.679Z,1.90
2023-05-01T10:38:26.879Z,1.70
2023-05-01T10:43:30.750Z,1.90
2023-05-01T10:46:19.171Z,3.15
2023-05-01T10:48:55.883Z,1.73
2023-05-01T10:51:27.532Z,1.70
2023-05-01T10:54:13.838Z,1.90
2023-05-01T10:56:44.006Z,1.73
2023-05-01T10:59:11.532Z,1.50
2023-05-01T11:01:39.962Z,2.13
2023-05-01T11:04:22.194Z,1.83
2023-05-01T11:07:11.303Z,1.85
2023-05-01T11:09:47.288Z,1.73
2023-05-01T11:12:15.606Z,1.95
2023-05-01T11:14:54.624Z,2.25
2023-05-01T11:17:40.586Z,1.80
2023-05-01T11:20:11.268Z,1.98
2023-05-01T11:22:40.113Z,1.67
2023-05-01T11:25:19.205Z,1.73
2023-05-01T11:27:49.386Z,1.92
2023-05-01T11:30:16.397Z,1.80
2023-05-01T11:32:47.996Z,1.60
2023-05-01T11:35:20.369Z,1.98
2023-05-01T11:37:48.030Z,2.30
2023-05-01T11:40:22.119Z,2.13
2023-05-01T11:42:49.544Z,2.00
2023-05-01T11:45:16.545Z,1.92
2023-05-01T11:47:43.264Z,2.00
2023-05-01T11:50:11.232Z,1.98
2023-05-01T11:52:53.262Z,1.65
2023-05-01T11:55:20.939Z,2.20
2023-05-01T11:57:49.532Z,1.70
2023-05-01T12:00:26.708Z,2.08
2023-05-01T12:03:02.995Z,2.05
2023-05-01T12:05:31.588Z,1.75
2023-05-01T12:08:10.031Z,1.95
2023-05-01T12:10:38.030Z,2.60
2023-05-01T12:13:05.790Z,2.20
2023-05-01T12:15:36.239Z,1.80
2023-05-01T12:18:04.528Z,1.70
2023-05-01T12:20:52.115Z,1.90
2023-05-01T12:23:29.581Z,2.03
2023-05-01T12:25:56.769Z,2.30
2023-05-01T12:28:23.760Z,1.90
2023-05-01T12:30:50.398Z,1.90
2023-05-01T12:33:19.509Z,1.85
2023-05-01T12:35:48.413Z,2.05
2023-05-01T12:38:20.575Z,1.80
2023-05-01T12:43:34.282Z,1.80
2023-05-01T12:46:01.949Z,1.70
2023-05-01T12:48:29.635Z,1.85
2023-05-01T12:50:57.088Z,1.92
2023-05-01T12:53:25.350Z,2.05
2023-05-01T12:56:03.137Z,1.80
2023-05-01T12:58:38.887Z,2.08
2023-05-01T13:01:06.601Z,1.92
2023-05-01T13:03:36.992Z,2.00
2023-05-01T13:06:06.497Z,2.22
2023-05-01T13:08:36.519Z,1.92
2023-05-01T13:11:14.511Z,1.95
2023-05-01T13:13:42.489Z,2.10
2023-05-01T13:16:10.500Z,2.08
2023-05-01T13:18:48.590Z,1.80
2023-05-01T13:21:17.537Z,1.80
2023-05-01T13:23:56.469Z,1.83
2023-05-01T13:26:32.631Z,1.70
2023-05-01T13:29:01.617Z,1.70
2023-05-01T13:31:28.586Z,2.38
2023-05-01T13:33:57.648Z,1.73
2023-05-01T13:36:26.319Z,2.10
2023-05-01T13:38:56.402Z,3.38
2023-05-01T13:41:28.337Z,2.00
2023-05-01T13:43:56.492Z,2.15
2023-05-01T13:46:24.788Z,2.00
2023-05-01T13:48:51.927Z,2.10
2023-05-01T13:51:23.430Z,2.20
2023-05-01T13:53:50.583Z,2.38
2023-05-01T13:56:17.389Z,2.00
2023-05-01T13:58:44.141Z,2.42
2023-05-01T14:01:18.865Z,2.30
2023-05-01T14:03:46.292Z,1.90
2023-05-01T14:06:21.024Z,2.20
2023-05-01T14:08:48.784Z,2.20
2023-05-01T14:11:16.263Z,2.45
2023-05-01T14:13:44.702Z,1.92
2023-05-01T14:16:25.943Z,1.83
2023-05-01T14:18:57.646Z,1.80
2023-05-01T14:21:29.840Z,2.20
2023-05-01T14:23:57.065Z,2.45
2023-05-01T14:26:24.637Z,2.08
2023-05-01T14:28:51.862Z,1.85
2023-05-01T14:31:27.477Z,2.10
2023-05-01T14:34:05.850Z,1.98
2023-05-01T14:36:33.012Z,1.85
2023-05-01T14:39:01.158Z,2.13
2023-05-01T14:41:28.105Z,2.10
2023-05-01T14:43:54.794Z,2.45
2023-05-01T14:46:34.027Z,2.13
2023-05-01T14:49:01.726Z,1.90
2023-05-01T14:51:31.173Z,1.92
2023-05-01T14:53:57.890Z,4.55
2023-05-01T14:56:24.695Z,8.98
2023-05-01T14:58:51.495Z,14.38
2023-05-01T15:01:19.388Z,12.25
2023-05-01T15:03:46.369Z,12.48
2023-05-01T15:06:13.188Z,5.30
2023-05-01T15:08:40.228Z,4.47
2023-05-01T15:11:07.705Z,7.13
2023-05-01T15:13:34.423Z,8.20
2023-05-01T15:16:01.217Z,6.65
2023-05-01T15:18:27.896Z,3.97
2023-05-01T15:20:54.843Z,3.20
2023-05-01T15:23:21.503Z,6.88
2023-05-01T15:25:50.447Z,5.70
2023-05-01T15:28:17.254Z,9.52
2023-05-01T15:30:45.836Z,7.57
2023-05-01T15:33:18.752Z,12.85
2023-05-01T15:35:47.267Z,8.70
2023-05-01T15:38:14.273Z,7.25
2023-05-01T15:40:43.442Z,7.72
2023-05-01T15:43:10.122Z,5.10
2023-05-01T15:45:42.550Z,4.30
2023-05-01T15:48:09.946Z,6.00
2023-05-01T15:50:36.605Z,7.38
2023-05-01T15:53:03.636Z,3.13
2023-05-01T15:55:30.355Z,3.65
2023-05-01T15:57:57.043Z,5.95
2023-05-01T16:00:23.844Z,5.10
2023-05-01T16:02:50.620Z,4.43
2023-05-01T16:05:21.133Z,4.30
2023-05-01T16:07:53.501Z,2.85
2023-05-01T16:10:20.468Z,8.90
2023-05-01T16:12:47.421Z,7.18
2023-05-01T16:15:14.938Z,4.03
2023-05-01T16:17:45.596Z,4.50
2023-05-01T16:20:14.002Z,5.85
2023-05-01T16:22:42.703Z,3.28
2023-05-01T16:25:10.583Z,4.47
2023-05-01T16:27:44.175Z,5.97
2023-05-01T16:30:14.282Z,8.40
2023-05-01T16:32:41.495Z,5.78
2023-05-01T16:35:11.299Z,4.65
2023-05-01T16:37:39.436Z,10.48
2023-05-01T16:40:09.305Z,9.02
2023-05-01T16:42:38.224Z,5.38
2023-05-01T16:45:08.103Z,6.22
2023-05-01T16:47:35.908Z,6.80
2023-05-01T16:50:03.387Z,6.85
2023-05-01T16:52:30.560Z,7.82
2023-05-01T16:54:58.972Z,2.05
2023-05-01T16:57:25.795Z,20.52
2023-05-01T16:59:53.028Z,5.57
2023-05-01T17:02:20.301Z,5.03
2023-05-01T17:04:47.201Z,6.03
2023-05-01T17:07:14.091Z,6.07
2023-05-01T17:09:40.862Z,5.95
2023-05-01T17:12:07.510Z,5.90
2023-05-01T17:14:34.165Z,5.13
2023-05-01T17:17:01.025Z,7.32
2023-05-01T17:19:28.004Z,3.05
2023-05-01T17:21:54.746Z,9.23
2023-05-01T17:24:22.464Z,6.55
2023-05-01T17:26:49.504Z,5.25
2023-05-01T17:29:16.367Z,4.50
2023-05-01T17:31:43.822Z,4.18
2023-05-01T17:34:10.649Z,5.40
2023-05-01T17:36:37.828Z,5.95
2023-05-01T17:39:04.925Z,7.75
2023-05-01T17:41:31.565Z,4.28
2023-05-01T17:43:58.151Z,5.63
2023-05-01T17:46:24.933Z,7.22
2023-05-01T17:48:51.844Z,3.85
2023-05-01T17:51:18.563Z,5.55
2023-05-01T17:53:45.653Z,2.40
2023-05-01T17:56:12.357Z,8.80
2023-05-01T17:58:39.486Z,3.60
2023-05-01T18:01:06.366Z,3.97
2023-05-01T18:03:33.396Z,4.13
2023-05-01T18:06:02.563Z,7.45
2023-05-01T18:08:29.367Z,7.15
2023-05-01T18:10:55.999Z,5.10
2023-05-01T18:13:27.926Z,4.00
2023-05-01T18:18:22.231Z,2.72
2023-05-01T18:20:48.937Z,4.32
2023-05-01T18:23:17.677Z,3.30
2023-05-01T18:25:44.485Z,3.95
2023-05-01T18:28:11.381Z,8.90
2023-05-01T18:30:38.016Z,5.15
2023-05-01T18:33:04.680Z,3.10
2023-05-01T18:35:31.387Z,5.88
2023-05-01T18:37:58.101Z,8.07
2023-05-01T18:40:26.799Z,8.32
2023-05-01T18:42:53.559Z,5.32
2023-05-01T18:45:20.165Z,3.97
2023-05-01T18:47:46.860Z,3.88
2023-05-01T18:50:13.924Z,4.90
2023-05-01T18:52:42.144Z,2.72
2023-05-01T18:55:11.217Z,8.43
2023-05-01T18:57:37.954Z,11.10
2023-05-01T19:00:06.660Z,5.90
2023-05-01T19:02:33.667Z,5.53
2023-05-01T19:05:00.708Z,6.03
2023-05-01T19:07:27.460Z,9.23
2023-05-01T19:09:54.339Z,6.88
2023-05-01T19:12:21.058Z,7.63
2023-05-01T19:14:47.692Z,3.53
2023-05-01T19:17:14.368Z,4.45
2023-05-01T19:19:41.035Z,3.65
2023-05-01T19:22:07.860Z,4.65
2023-05-01T19:24:34.738Z,3.53
2023-05-01T19:27:03.266Z,7.82
2023-05-01T19:29:31.753Z,4.55
2023-05-01T19:32:00.281Z,8.43
2023-05-01T19:34:27.849Z,3.97
2023-05-01T19:36:56.911Z,6.88
2023-05-01T19:39:24.012Z,8.80
2023-05-01T19:41:51.017Z,20.17
2023-05-01T19:44:17.826Z,18.25
2023-05-01T19:46:45.006Z,17.45
2023-05-01T19:49:11.995Z,12.68
2023-05-01T19:51:38.677Z,11.73
2023-05-01T19:54:05.355Z,13.57
2023-05-01T19:56:31.998Z,10.45
2023-05-01T19:58:58.579Z,11.82
2023-05-01T20:01:25.208Z,12.32
2023-05-01T20:03:51.855Z,9.55
2023-05-01T20:06:18.562Z,8.40
2023-05-01T20:08:45.225Z,11.80
2023-05-01T20:11:11.861Z,9.48
2023-05-01T20:13:38.464Z,7.07
2023-05-01T20:16:05.431Z,6.65
2023-05-01T20:18:32.098Z,8.93
2023-05-01T20:20:58.717Z,7.20
2023-05-01T20:23:25.500Z,7.35
2023-05-01T20:25:53.120Z,6.68
2023-05-01T20:28:21.190Z,10.55
2023-05-01T20:30:49.101Z,8.02
2023-05-01T20:33:17.515Z,4.40
2023-05-01T20:35:45.131Z,4.85
2023-05-01T20:38:11.782Z,6.72
2023-05-01T20:40:42.531Z,5.22
2023-05-01T20:43:09.155Z,5.63
2023-05-01T20:45:35.830Z,8.57
2023-05-01T20:48:02.693Z,7.57
2023-05-01T20:50:29.503Z,5.57
2023-05-01T20:52:56.344Z,6.38
2023-05-01T20:55:23.764Z,10.00
2023-05-01T20:57:50.529Z,4.30
2023-05-01T21:00:17.252Z,4.18
2023-05-01T21:02:44.135Z,5.05
2023-05-01T21:05:11.331Z,3.83
2023-05-01T21:07:41.504Z,5.03
2023-05-01T21:10:14.115Z,4.15
2023-05-01T21:12:40.766Z,4.00
2023-05-01T21:15:07.993Z,9.77
2023-05-01T21:17:35.906Z,3.80
2023-05-01T21:20:05.664Z,5.60
2023-05-01T21:22:32.266Z,3.42
2023-05-01T21:24:59.820Z,5.47
2023-05-01T21:27:27.291Z,3.65
2023-05-01T21:29:58.699Z,3.55
2023-05-01T21:32:40.041Z,3.72
2023-05-01T21:35:07.968Z,4.15
2023-05-01T21:37:34.601Z,5.72
2023-05-01T21:40:01.590Z,4.95
2023-05-01T21:42:36.025Z,4.70
2023-05-01T21:45:13.693Z,4.05
2023-05-01T21:47:42.730Z,6.55
2023-05-01T21:50:15.492Z,4.40
2023-05-01T21:52:43.674Z,6.22
2023-05-01T21:55:16.032Z,5.22
2023-05-01T21:57:42.696Z,3.78
2023-05-01T22:00:09.867Z,4.65
2023-05-01T22:02:41.738Z,6.93
2023-05-01T22:05:09.266Z,7.88
2023-05-01T22:07:43.675Z,4.55
2023-05-01T22:10:12.347Z,3.13
2023-05-01T22:12:39.973Z,3.38
2023-05-01T22:15:11.102Z,3.88
2023-05-01T22:17:38.995Z,3.00
2023-05-01T22:20:07.244Z,3.63
2023-05-01T22:22:38.505Z,3.97
2023-05-01T22:25:05.983Z,2.75
2023-05-01T22:27:33.023Z,3.30
2023-05-01T22:29:59.943Z,3.33
2023-05-01T22:32:26.916Z,2.20
2023-05-01T22:34:53.620Z,4.15
2023-05-01T22:37:20.244Z,3.13
2023-05-01T22:39:46.840Z,3.05
2023-05-01T22:42:14.319Z,4.28
2023-05-01T22:44:40.902Z,2.10
2023-05-01T22:47:07.561Z,2.70
2023-05-01T22:49:34.196Z,2.80
2023-05-01T22:52:02.495Z,2.28
2023-05-01T22:54:29.234Z,3.63
2023-05-01T22:56:56.236Z,6.35
2023-05-01T22:59:22.916Z,3.00
2023-05-01T23:01:49.605Z,3.58
2023-05-01T23:04:16.553Z,2.90
2023-05-01T23:06:44.222Z,3.10
2023-05-01T23:09:11.559Z,5.53
2023-05-01T23:11:40.689Z,4.70
2023-05-01T23:14:07.436Z,2.83
2023-05-01T23:16:41.201Z,2.63
2023-05-01T23:19:21.407Z,1.92
2023-05-01T23:21:49.469Z,2.83
2023-05-01T23:24:18.249Z,1.92
2023-05-01T23:26:45.665Z,4.68
2023-05-01T23:29:18.133Z,1.98
2023-05-01T23:31:47.053Z,2.88
2023-05-01T23:34:17.429Z,2.53
2023-05-01T23:36:46.048Z,1.75
2023-05-01T23:39:13.286Z,2.92
2023-05-01T23:41:40.348Z,2.17
2023-05-01T23:44:07.312Z,1.77
2023-05-01T23:46:34.154Z,2.95
2023-05-01T23:49:00.930Z,2.95
2023-05-01T23:51:27.742Z,2.47
2023-05-01T23:53:54.414Z,2.10
2023-05-01T23:56:21.133Z,1.75
2023-05-01T23:58:47.816Z,3.15
